createdAt,value
2019-04-23T00:02:25.208Z,99538.34
2019-04-23T00:04:57.340Z,99538.08
2019-04-23T00:07:39.752Z,99535.28
2019-04-23T00:10:06.311Z,99532.80
2019-04-23T00:12:38.940Z,99526.42
2019-04-23T00:20:03.400Z,99520.24
2019-04-23T00:22:54.678Z,99516.23
2019-04-23T00:28:10.282Z,99509.83
2019-04-23T00:30:45.367Z,99509.08
2019-04-23T00:33:12.578Z,99512.48
2019-04-23T00:35:38.423Z,99507.51
2019-04-23T00:38:12.189Z,99504.56
2019-04-23T00:40:39.331Z,99509.99
2019-04-23T00:43:15.548Z,99508.33
2019-04-23T00:48:15.641Z,99513.05
2019-04-23T00:50:54.244Z,99507.88
2019-04-23T00:53:19.472Z,99508.74
2019-04-23T00:55:47.621Z,99505.71
2019-04-23T00:58:22.135Z,99506.86
2019-04-23T01:00:45.944Z,99510.17
2019-04-23T01:03:20.591Z,99511.67
2019-04-23T01:05:50.356Z,99506.82
2019-04-23T01:08:21.745Z,99505.36
2019-04-23T01:10:56.451Z,99505.90
2019-04-23T01:15:59.685Z,99503.26
2019-04-23T01:20:54.257Z,99510.78
2019-04-23T01:23:51.886Z,99505.25
2019-04-23T01:26:40.546Z,99503.32
2019-04-23T01:29:06.761Z,99506.84
2019-04-23T01:31:43.009Z,99495.69
2019-04-23T01:34:18.398Z,99506.52
2019-04-23T01:36:35.970Z,99502.70
2019-04-23T01:39:14.335Z,99505.52
2019-04-23T01:41:47.551Z,99502.59
2019-04-23T01:44:20.119Z,99500.02
2019-04-23T01:46:49.359Z,99495.02
2019-04-23T01:49:14.199Z,99497.59
2019-04-23T01:51:49.774Z,99493.02
2019-04-23T01:54:24.176Z,99489.63
2019-04-23T01:56:40.355Z,99489.59
2019-04-23T01:59:20.101Z,99489.30
2019-04-23T02:01:50.393Z,99488.22
2019-04-23T02:04:24.745Z,99482.88
2019-04-23T02:06:51.337Z,99487.39
2019-04-23T02:09:18.499Z,99478.14
2019-04-23T02:11:53.350Z,99480.97
2019-04-23T02:14:20.830Z,99480.05
2019-04-23T02:16:49.959Z,99486.34
2019-04-23T02:19:23.551Z,99481.62
2019-04-23T02:21:57.562Z,99484.25
2019-04-23T02:24:36.331Z,99473.69
2019-04-23T02:27:08.479Z,99479.89
2019-04-23T02:29:44.667Z,99484.78
2019-04-23T02:34:52.451Z,99481.30
2019-04-23T02:37:15.209Z,99482.13
2019-04-23T02:39:49.495Z,99483.31
2019-04-23T02:44:38.766Z,99477.56
2019-04-23T02:52:21.779Z,99475.70
2019-04-23T02:54:51.031Z,99473.98
2019-04-23T02:57:16.250Z,99468.31
2019-04-23T03:00:07.990Z,99460.20
2019-04-23T03:02:37.242Z,99456.05
2019-04-23T03:04:49.950Z,99456.88
2019-04-23T03:15:00.874Z,99452.63
2019-04-23T03:17:26.366Z,99450.77
2019-04-23T03:20:07.946Z,99452.17
2019-04-23T03:22:35.455Z,99456.83
2019-04-23T03:25:12.926Z,99457.75
2019-04-23T03:33:31.050Z,99449.38
2019-04-23T03:37:42.343Z,99441.92
2019-04-23T03:42:42.790Z,99437.56
2019-04-23T03:47:37.408Z,99437.97
2019-04-23T03:50:15.318Z,99442.53
2019-04-23T03:52:38.937Z,99437.90
2019-04-23T03:55:23.729Z,99439.64
2019-04-23T03:57:40.215Z,99447.88
2019-04-23T04:05:31.223Z,99433.51
2019-04-23T04:10:16.194Z,99433.91
2019-04-23T04:15:43.785Z,99431.88
2019-04-23T04:18:03.934Z,99432.47
2019-04-23T04:20:35.759Z,99434.22
2019-04-23T04:23:03.715Z,99444.22
2019-04-23T04:28:12.180Z,99444.42
2019-04-23T04:30:27.290Z,99442.48
2019-04-23T04:33:18.546Z,99447.55
2019-04-23T04:35:24.862Z,99431.87
2019-04-23T04:40:34.604Z,99433.64
2019-04-23T04:43:06.742Z,99427.18
2019-04-23T04:47:49.313Z,99425.31
2019-04-23T04:50:25.248Z,99426.27
2019-04-23T04:53:18.361Z,99414.77
2019-04-23T04:55:26.565Z,99424.24
2019-04-23T05:00:45.002Z,99419.22
2019-04-23T05:10:43.307Z,99428.30
2019-04-23T05:15:28.361Z,99420.20
2019-04-23T05:18:23.905Z,99426.92
2019-04-23T05:20:52.983Z,99425.18
2019-04-23T05:23:29.339Z,99421.47
2019-04-23T05:25:51.505Z,99422.09
2019-04-23T05:28:44.577Z,99421.45
2019-04-23T05:31:01.592Z,99422.53
2019-04-23T05:33:23.544Z,99416.78
2019-04-23T05:36:12.695Z,99413.52
2019-04-23T05:38:35.933Z,99409.12
2019-04-23T05:41:03.801Z,99408.73
2019-04-23T05:43:26.116Z,99416.78
2019-04-23T05:45:57.371Z,99412.57
2019-04-23T05:48:26.095Z,99408.84
2019-04-23T05:51:04.257Z,99415.41
2019-04-23T05:53:33.032Z,99420.54
2019-04-23T05:56:01.575Z,99417.42
2019-04-23T05:58:40.073Z,99422.45
2019-04-23T06:01:32.188Z,99410.80
2019-04-23T06:03:48.915Z,99414.25
2019-04-23T06:06:20.829Z,99421.03
2019-04-23T06:08:53.341Z,99414.41
2019-04-23T06:11:30.735Z,99415.51
2019-04-23T06:14:02.072Z,99412.56
2019-04-23T06:16:33.028Z,99414.91
2019-04-23T06:19:02.996Z,99413.11
2019-04-23T06:21:34.536Z,99407.53
2019-04-23T06:24:03.029Z,99408.50
2019-04-23T06:26:40.092Z,99416.13
2019-04-23T06:29:10.284Z,99414.59
2019-04-23T06:31:35.953Z,99411.72
2019-04-23T06:34:06.254Z,99403.34
2019-04-23T06:36:34.328Z,99406.37
2019-04-23T06:38:57.124Z,99407.79
2019-04-23T06:44:12.976Z,99399.13
2019-04-23T06:46:43.442Z,99404.37
2019-04-23T06:49:09.487Z,99403.25
2019-04-23T06:51:44.894Z,99401.80
2019-04-23T06:54:15.348Z,99402.83
2019-04-23T06:56:57.338Z,99404.91
2019-04-23T06:59:12.867Z,99405.22
2019-04-23T07:01:51.584Z,99404.86
2019-04-23T07:04:10.683Z,99411.72
2019-04-23T07:06:46.747Z,99401.19
2019-04-23T07:11:39.290Z,99386.67
2019-04-23T07:14:10.070Z,99393.90
2019-04-23T07:16:48.814Z,99390.30
2019-04-23T07:19:30.526Z,99394.77
2019-04-23T07:21:42.002Z,99393.80
2019-04-23T07:24:28.755Z,99386.81
2019-04-23T07:29:20.332Z,99393.09
2019-04-23T07:34:20.381Z,99390.86
2019-04-23T07:36:47.342Z,99394.91
2019-04-23T07:39:33.346Z,99402.73
2019-04-23T07:42:16.852Z,99397.20
2019-04-23T07:44:54.510Z,99394.28
2019-04-23T07:47:32.131Z,99387.17
2019-04-23T07:50:12.885Z,99387.09
2019-04-23T07:55:02.194Z,99391.47
2019-04-23T07:57:35.047Z,99384.61
2019-04-23T08:00:01.999Z,99385.02
2019-04-23T08:02:29.976Z,99386.35
2019-04-23T08:07:26.860Z,99386.72
2019-04-23T08:10:02.408Z,99384.02
2019-04-23T08:12:31.720Z,99379.33
2019-04-23T08:15:09.485Z,99376.63
2019-04-23T08:17:31.172Z,99379.70
2019-04-23T08:22:37.253Z,99372.52
2019-04-23T08:25:29.753Z,99380.09
2019-04-23T08:27:55.515Z,99374.75
2019-04-23T08:30:09.369Z,99378.56
2019-04-23T08:32:38.882Z,99372.98
2019-04-23T08:35:32.556Z,99376.13
2019-04-23T08:40:15.034Z,99373.88
2019-04-23T08:45:29.683Z,99379.57
2019-04-23T08:50:46.541Z,99367.25
2019-04-23T08:53:31.723Z,99371.31
2019-04-23T08:58:19.155Z,99369.38
2019-04-23T09:00:51.776Z,99366.55
2019-04-23T09:03:28.480Z,99380.40
2019-04-23T09:05:52.251Z,99374.83
2019-04-23T09:08:20.352Z,99366.28
2019-04-23T09:10:58.095Z,99365.43
2019-04-23T09:18:23.331Z,99376.40
2019-04-23T09:20:52.893Z,99373.91
2019-04-23T09:23:26.371Z,99375.09
2019-04-23T09:25:54.424Z,99376.61
2019-04-23T09:28:38.651Z,99377.22
2019-04-23T09:31:04.120Z,99373.63
2019-04-23T09:36:22.399Z,99366.66
2019-04-23T09:38:55.930Z,99376.89
2019-04-23T09:41:21.928Z,99362.47
2019-04-23T09:44:02.989Z,99365.62
2019-04-23T09:46:29.637Z,99356.77
2019-04-23T09:49:05.933Z,99357.40
2019-04-23T09:51:36.707Z,99356.75
2019-04-23T09:54:10.635Z,99364.81
2019-04-23T09:56:41.633Z,99357.62
2019-04-23T09:59:20.869Z,99356.55
2019-04-23T10:01:32.855Z,99355.49
2019-04-23T10:03:57.719Z,99349.75
2019-04-23T10:06:19.037Z,99350.02
2019-04-23T10:08:49.467Z,99353.38
2019-04-23T10:11:13.843Z,99353.64
2019-04-23T10:13:44.823Z,99347.05
2019-04-23T10:16:17.325Z,99356.31
2019-04-23T10:18:44.966Z,99357.95
2019-04-23T10:21:15.329Z,99347.02
2019-04-23T10:23:45.200Z,99358.42
2019-04-23T10:26:14.484Z,99359.06
2019-04-23T10:28:49.652Z,99347.25
2019-04-23T10:31:18.936Z,99351.83
2019-04-23T10:33:48.200Z,99344.66
2019-04-23T10:36:21.545Z,99346.84
2019-04-23T10:38:54.785Z,99334.30
2019-04-23T10:41:20.107Z,99347.52
2019-04-23T10:43:54.365Z,99342.05
2019-04-23T10:46:58.271Z,99340.55
2019-04-23T10:49:53.242Z,99344.56
2019-04-23T10:54:45.624Z,99341.83
2019-04-23T10:57:16.611Z,99334.03
2019-04-23T11:02:34.734Z,99326.17
2019-04-23T11:05:11.745Z,99310.27
2019-04-23T11:20:25.527Z,99299.17
2019-04-23T11:22:45.155Z,99292.18
2019-04-23T11:25:28.085Z,99291.27
2019-04-23T11:30:26.305Z,99288.46
2019-04-23T11:32:57.309Z,99297.04
2019-04-23T11:40:21.280Z,99274.93
2019-04-23T11:42:57.897Z,99291.63
2019-04-23T11:45:34.596Z,99282.97
2019-04-23T11:50:39.574Z,99276.56
2019-04-23T11:53:10.451Z,99279.02
2019-04-23T11:58:08.188Z,99274.05
2019-04-23T12:00:38.949Z,99280.27
2019-04-23T12:02:56.361Z,99279.88
2019-04-23T12:06:07.819Z,99277.13
2019-04-23T12:08:33.482Z,99288.70
2019-04-23T12:11:15.214Z,99280.80
2019-04-23T12:13:38.315Z,99288.40
2019-04-23T12:16:01.703Z,99281.62
2019-04-23T12:21:28.370Z,99276.13
2019-04-23T12:24:10.751Z,99283.27
2019-04-23T12:31:31.447Z,99267.48
2019-04-23T12:33:57.425Z,99277.83
2019-04-23T12:36:44.115Z,99266.39
2019-04-23T12:39:04.364Z,99271.78
2019-04-23T12:41:32.921Z,99274.66
2019-04-23T12:43:57.858Z,99269.87
2019-04-23T12:46:41.586Z,99268.97
2019-04-23T12:49:10.690Z,99272.70
2019-04-23T12:54:07.750Z,99279.80
2019-04-23T12:56:48.823Z,99276.08
2019-04-23T12:59:01.822Z,99276.16
2019-04-23T13:01:47.004Z,99261.72
2019-04-23T13:03:59.703Z,99265.36
2019-04-23T13:06:42.031Z,99272.14
2019-04-23T13:09:19.549Z,99255.59
2019-04-23T13:14:17.296Z,99263.31
2019-04-23T13:16:44.674Z,99263.56
2019-04-23T13:19:23.921Z,99261.97
2019-04-23T13:24:35.991Z,99260.58
2019-04-23T13:27:02.511Z,99264.36
2019-04-23T13:29:42.984Z,99254.21
2019-04-23T13:32:04.054Z,99253.80
2019-04-23T13:34:41.490Z,99243.04
2019-04-23T13:37:13.868Z,99254.54
2019-04-23T13:39:40.396Z,99243.17
2019-04-23T13:42:18.128Z,99244.73
2019-04-23T13:44:42.437Z,99244.95
2019-04-23T13:47:23.910Z,99234.89
2019-04-23T13:49:47.488Z,99232.94
2019-04-23T13:52:44.547Z,99237.25
2019-04-23T13:54:59.610Z,99239.31
2019-04-23T13:59:45.193Z,99247.57
2019-04-23T14:02:23.352Z,99241.25
2019-04-23T14:07:34.653Z,99250.98
2019-04-23T14:12:31.899Z,99247.22
2019-04-23T14:15:04.035Z,99258.91
2019-04-23T14:18:02.919Z,99260.39
2019-04-23T14:20:15.308Z,99248.95
2019-04-23T14:25:10.191Z,99245.41
2019-04-23T14:27:51.968Z,99247.13
2019-04-23T14:30:21.912Z,99248.06
2019-04-23T14:32:46.887Z,99256.84
2019-04-23T14:38:07.322Z,99244.55
2019-04-23T14:40:34.343Z,99252.58
2019-04-23T14:42:56.809Z,99255.75
2019-04-23T14:47:59.129Z,99255.14
2019-04-23T14:50:32.280Z,99263.73
2019-04-23T14:53:10.602Z,99252.41
2019-04-23T14:55:53.006Z,99249.61
2019-04-23T14:58:10.569Z,99264.31
2019-04-23T15:00:49.753Z,99270.28
2019-04-23T15:05:52.792Z,99280.10
2019-04-23T15:08:16.849Z,99285.47
2019-04-23T15:11:03.727Z,99277.31
2019-04-23T15:13:16.903Z,99278.71
2019-04-23T15:15:58.009Z,99282.58
2019-04-23T15:18:37.833Z,99280.34
2019-04-23T15:24:00.460Z,99291.77
2019-04-23T15:28:34.042Z,99301.14
2019-04-23T15:31:26.812Z,99302.81
2019-04-23T15:34:03.112Z,99303.03
2019-04-23T15:36:41.338Z,99311.91
2019-04-23T15:39:04.109Z,99307.48
2019-04-23T15:41:32.036Z,99314.41
2019-04-23T15:44:03.090Z,99309.48
2019-04-23T15:46:35.466Z,99307.97
2019-04-23T15:49:07.287Z,99306.08
2019-04-23T15:54:02.752Z,99310.42
2019-04-23T15:59:10.808Z,99297.95
2019-04-23T16:01:39.490Z,99304.25
2019-04-23T16:03:38.268Z,99302.16
2019-04-23T16:06:10.334Z,99301.30
2019-04-23T16:12:25.534Z,99295.44
2019-04-23T16:16:51.514Z,99289.55
2019-04-23T16:24:19.505Z,99280.66
2019-04-23T16:31:54.797Z,99281.27
2019-04-23T16:34:29.211Z,99283.60
2019-04-23T16:39:31.396Z,99271.72
2019-04-23T16:42:18.861Z,99284.42
2019-04-23T16:44:46.493Z,99282.96
2019-04-23T16:47:14.529Z,99277.42
2019-04-23T16:49:42.347Z,99275.72
2019-04-23T16:52:12.559Z,99289.06
2019-04-23T16:54:50.557Z,99279.13
2019-04-23T16:59:46.828Z,99280.63
2019-04-23T17:02:16.063Z,99297.73
2019-04-23T17:04:45.971Z,99300.20
2019-04-23T17:07:06.888Z,99290.59
2019-04-23T17:09:57.571Z,99288.89
2019-04-23T17:12:15.039Z,99311.75
2019-04-23T17:14:49.738Z,99303.99
2019-04-23T17:17:15.622Z,99310.59
2019-04-23T17:19:54.063Z,99308.88
2019-04-23T17:22:33.909Z,99299.02
2019-04-23T17:24:54.016Z,99309.33
2019-04-23T17:27:22.514Z,99301.53
2019-04-23T17:29:48.928Z,99313.32
2019-04-23T17:32:15.432Z,99309.09
2019-04-23T17:35:04.843Z,99318.38
2019-04-23T17:37:32.507Z,99308.77
2019-04-23T17:51:08.577Z,99318.61
2019-04-23T17:53:22.336Z,99328.54
2019-04-23T17:55:57.103Z,99326.19
2019-04-23T17:58:25.414Z,99326.22
2019-04-23T18:01:04.023Z,99324.12
2019-04-23T18:03:28.186Z,99323.05
2019-04-23T18:06:05.673Z,99327.43
2019-04-23T18:11:05.957Z,99329.34
2019-04-23T18:13:28.289Z,99330.55
2019-04-23T18:16:04.135Z,99326.87
2019-04-23T18:24:00.282Z,99328.34
2019-04-23T18:26:36.013Z,99331.98
2019-04-23T18:29:15.669Z,99331.34
2019-04-23T18:31:44.797Z,99334.50
2019-04-23T18:34:14.674Z,99333.48
2019-04-23T18:36:38.927Z,99329.10
2019-04-23T18:39:19.817Z,99333.11
2019-04-23T18:41:54.895Z,99342.12
2019-04-23T18:44:21.747Z,99337.30
2019-04-23T18:46:52.302Z,99340.91
2019-04-23T18:49:28.079Z,99329.69
2019-04-23T18:51:58.897Z,99349.08
2019-04-23T18:54:22.757Z,99343.01
2019-04-23T18:57:09.969Z,99347.25
2019-04-23T18:59:40.769Z,99349.64
2019-04-23T19:02:00.743Z,99345.63
2019-04-23T19:04:45.249Z,99350.56
2019-04-23T19:07:27.312Z,99353.61
2019-04-23T19:10:19.013Z,99351.33
2019-04-23T19:12:48.138Z,99352.83
2019-04-23T19:15:13.958Z,99355.30
2019-04-23T19:20:17.959Z,99362.81
2019-04-23T19:22:51.850Z,99357.88
2019-04-23T19:25:14.498Z,99371.88
2019-04-23T19:27:45.885Z,99357.06
2019-04-23T19:30:15.847Z,99368.45
2019-04-23T19:32:50.864Z,99351.14
2019-04-23T19:35:33.567Z,99353.80
2019-04-23T19:38:01.463Z,99353.80
2019-04-23T19:40:24.633Z,99361.86
2019-04-23T19:42:55.390Z,99349.06
2019-04-23T19:45:26.046Z,99347.73
2019-04-23T19:48:13.572Z,99351.11
2019-04-23T19:50:28.405Z,99369.92
2019-04-23T19:55:26.239Z,99362.93
2019-04-23T20:00:31.183Z,99347.44
2019-04-23T20:03:13.660Z,99344.09
2019-04-23T20:05:23.983Z,99347.01
2019-04-23T20:08:02.316Z,99347.86
2019-04-23T20:10:30.082Z,99347.96
2019-04-23T20:12:51.874Z,99343.45
2019-04-23T20:15:40.145Z,99341.32
2019-04-23T20:17:54.121Z,99339.20
2019-04-23T20:20:35.369Z,99339.63
2019-04-23T20:22:55.632Z,99339.73
2019-04-23T20:26:03.264Z,99342.95
2019-04-23T20:28:14.879Z,99340.23
2019-04-23T20:41:05.755Z,99338.16
2019-04-23T20:43:40.417Z,99338.80
2019-04-23T20:46:10.926Z,99336.78
2019-04-23T20:48:46.942Z,99345.05
2019-04-23T20:51:00.019Z,99334.81
2019-04-23T20:53:40.359Z,99333.30
2019-04-23T20:56:07.245Z,99341.52
2019-04-23T20:58:48.147Z,99328.09
2019-04-23T21:06:21.570Z,99327.23
2019-04-23T21:09:17.235Z,99317.89
2019-04-23T21:11:13.881Z,99315.56
2019-04-23T21:16:27.279Z,99316.52
2019-04-23T21:18:48.005Z,99313.25
2019-04-23T21:24:20.430Z,99303.59
2019-04-23T21:26:16.741Z,99304.70
2019-04-23T21:28:47.589Z,99309.80
2019-04-23T21:31:27.468Z,99313.78
2019-04-23T21:34:12.507Z,99311.31
2019-04-23T21:36:43.406Z,99304.98
2019-04-23T21:44:21.210Z,99297.71
2019-04-23T21:46:51.121Z,99301.80
2019-04-23T21:51:49.286Z,99294.55
2019-04-23T21:54:13.288Z,99295.47
2019-04-23T21:56:55.427Z,99289.00
2019-04-23T21:59:10.172Z,99300.31
2019-04-23T22:02:12.776Z,99289.41
2019-04-23T22:04:33.568Z,99286.13
2019-04-23T22:09:27.125Z,99286.19
2019-04-23T22:14:27.120Z,99281.08
2019-04-23T22:17:02.901Z,99282.69
2019-04-23T22:19:52.662Z,99287.63
2019-04-23T22:21:55.597Z,99284.11
2019-04-23T22:24:25.559Z,99271.95
2019-04-23T22:26:57.646Z,99274.73
2019-04-23T22:29:33.460Z,99267.33
2019-04-23T22:31:53.833Z,99263.73
2019-04-23T22:34:43.355Z,99265.63
2019-04-23T22:37:11.083Z,99264.40
2019-04-23T22:39:39.936Z,99267.97
2019-04-23T22:42:15.128Z,99263.30
2019-04-23T22:44:50.703Z,99257.20
2019-04-23T22:47:14.097Z,99260.42
2019-04-23T22:49:51.328Z,99258.53
2019-04-23T22:52:31.445Z,99248.16
2019-04-23T22:54:49.433Z,99253.70
2019-04-23T22:57:11.569Z,99248.00
2019-04-23T23:02:26.937Z,99245.25
2019-04-23T23:05:10.349Z,99243.08
2019-04-23T23:07:28.868Z,99239.47
2019-04-23T23:10:00.802Z,99235.50
2019-04-23T23:12:36.643Z,99226.20
2019-04-23T23:15:00.979Z,99232.82
2019-04-23T23:17:30.707Z,99230.14
2019-04-23T23:20:08.511Z,99228.22
2019-04-23T23:22:27.505Z,99236.80
2019-04-23T23:25:11.411Z,99221.65
2019-04-23T23:27:45.476Z,99225.78
2019-04-23T23:32:40.863Z,99220.23
2019-04-23T23:35:14.699Z,99219.34
2019-04-23T23:37:35.555Z,99222.98
2019-04-23T23:40:15.221Z,99226.63
2019-04-23T23:42:45.914Z,99223.77
2019-04-23T23:47:38.865Z,99221.43
2019-04-23T23:50:31.785Z,99217.55
2019-04-23T23:52:48.798Z,99220.01
2019-04-23T23:55:13.735Z,99216.51
2019-04-23T23:57:41.277Z,99210.92
